LRSV/SCV METAR and TAF weather

Enter ICAO airport designator
Station Type Date Time Source
LRSV METAR 2022/08/16 18:30 UTC NOAA

LRSV 161830Z 26008KT 9999 -SHRA SCT035CB BKN050 20/18 Q1009


Station Type Date Time Source
LRSV Decoded METAR 2022/08/16 18:30 UTC NOAA

Suceava / Salcea, Romania (LRSV) 47-39N 026-15E 351M
Aug 16, 2022 - 02:30 PM EDT / 2022.08.16 1830 UTC
Wind: from the W (260 degrees) at 9 MPH (8 KT):0
Visibility: greater than 7 mile(s):0
Sky conditions: mostly cloudy
Weather: light rain showers; Cumulonimbus clouds observed
Temperature: 68 F (20 C)
Dew Point: 64 F (18 C)
Relative Humidity: 88%
Pressure (altimeter): 29.80 in. Hg (1009 hPa)
ob: LRSV 161830Z 26008KT 9999 -SHRA SCT035CB BKN050 20/18 Q1009
cycle: 18

Station Type Date Time Source
LRSV TAF 2014/07/19 18:48 UTC NOAA

TAF LRSV 191800Z 1918/2024 CNL

Example: see airport list